createdAt,value
2017-09-20T03:32:13.682Z,92.80
2017-09-20T03:34:41.307Z,92.70
2017-09-20T03:37:08.885Z,92.70
2017-09-20T03:39:36.475Z,94.20
2017-09-20T03:42:05.062Z,92.50
2017-09-20T03:44:33.410Z,92.70
2017-09-20T03:47:01.103Z,92.70
2017-09-20T03:49:29.497Z,93.40
2017-09-20T03:51:57.140Z,93.40
2017-09-20T03:54:25.514Z,91.30
2017-09-20T03:56:53.993Z,91.40
2017-09-20T03:59:22.369Z,91.50
2017-09-20T04:01:50.718Z,91.70
2017-09-20T04:04:18.514Z,91.70
2017-09-20T04:06:46.890Z,92.40
2017-09-20T04:09:15.262Z,92.30
2017-09-20T04:11:43.745Z,92.50
2017-09-20T04:14:12.098Z,92.70
2017-09-20T04:16:39.890Z,92.70
2017-09-20T04:19:08.237Z,92.70
2017-09-20T04:21:35.820Z,92.70
2017-09-20T04:24:04.511Z,92.70
2017-09-20T04:26:32.861Z,92.90
2017-09-20T04:29:00.542Z,92.90
2017-09-20T04:31:28.941Z,93.10
2017-09-20T04:33:56.530Z,93.10
2017-09-20T04:36:24.138Z,92.90
2017-09-20T04:38:52.613Z,93.20
2017-09-20T04:41:20.962Z,93.10
2017-09-20T04:43:48.549Z,93.10
2017-09-20T04:46:16.965Z,92.90
2017-09-20T04:48:44.555Z,92.90
2017-09-20T04:51:12.150Z,93.80
2017-09-20T04:53:39.782Z,92.40
2017-09-20T04:56:07.370Z,92.30
2017-09-20T04:58:36.045Z,92.50
2017-09-20T05:01:04.425Z,92.70
2017-09-20T05:03:32.769Z,92.60
2017-09-20T05:06:00.373Z,92.60
2017-09-20T05:08:28.722Z,92.40
2017-09-20T05:10:56.346Z,92.40
2017-09-20T05:13:23.934Z,92.70
2017-09-20T05:15:51.522Z,92.40
2017-09-20T05:18:19.910Z,93.50
2017-09-20T05:20:47.557Z,93.70
2017-09-20T05:23:15.935Z,93.60
2017-09-20T05:25:44.445Z,93.50
2017-09-20T05:28:12.026Z,93.50
2017-09-20T05:30:39.611Z,93.40
2017-09-20T05:33:07.321Z,93.50
2017-09-20T05:35:35.001Z,93.60
2017-09-20T05:38:02.846Z,93.20
2017-09-20T05:40:31.289Z,92.50
2017-09-20T05:42:59.647Z,92.20
2017-09-20T05:45:27.233Z,92.20
2017-09-20T05:47:55.606Z,93.00
2017-09-20T05:50:23.954Z,92.40
2017-09-20T05:52:51.541Z,92.40
2017-09-20T05:55:20.125Z,91.90
2017-09-20T05:57:48.482Z,89.50
2017-09-20T06:00:16.078Z,89.40
2017-09-20T06:02:43.708Z,90.10
2017-09-20T06:05:11.293Z,90.40
2017-09-20T06:07:38.878Z,91.20
2017-09-20T06:10:06.526Z,91.10
2017-09-20T06:12:34.123Z,91.30
2017-09-20T06:15:01.708Z,91.70
2017-09-20T06:17:29.330Z,91.80
2017-09-20T06:19:56.913Z,91.60
2017-09-20T06:22:24.500Z,91.90
2017-09-20T06:24:52.998Z,91.70
2017-09-20T06:27:20.578Z,91.70
2017-09-20T06:29:48.163Z,91.70
2017-09-20T06:32:15.769Z,91.50
2017-09-20T06:34:43.358Z,91.40
2017-09-20T06:37:10.982Z,91.30
2017-09-20T06:39:38.585Z,91.20
2017-09-20T06:42:06.183Z,91.30
2017-09-20T06:44:34.570Z,91.20
2017-09-20T06:47:02.922Z,91.20
2017-09-20T06:49:30.511Z,91.10
2017-09-20T06:51:58.362Z,91.20
2017-09-20T06:54:26.726Z,91.50
2017-09-20T06:56:54.313Z,91.20
2017-09-20T06:59:22.163Z,91.00
2017-09-20T07:01:50.514Z,91.20
2017-09-20T07:04:18.097Z,91.20
2017-09-20T07:06:46.489Z,91.20
2017-09-20T07:09:14.075Z,91.10
2017-09-20T07:11:41.653Z,91.00
2017-09-20T07:14:09.262Z,91.00
2017-09-20T07:16:36.861Z,90.80
2017-09-20T07:19:04.482Z,91.10
2017-09-20T07:21:32.829Z,91.30
2017-09-20T07:24:00.416Z,91.30
2017-09-20T07:26:28.818Z,91.50
2017-09-20T07:28:56.406Z,91.50
2017-09-20T07:31:23.991Z,91.60
2017-09-20T07:33:51.637Z,91.40
2017-09-20T07:36:19.222Z,91.50
2017-09-20T07:38:47.570Z,91.60
2017-09-20T07:41:15.205Z,91.70
2017-09-20T07:43:42.786Z,91.90
2017-09-20T07:46:10.370Z,91.90
2017-09-20T07:48:38.954Z,92.10
2017-09-20T07:51:07.310Z,92.00
2017-09-20T07:53:36.722Z,91.90
2017-09-20T07:56:05.717Z,91.70
2017-09-20T07:58:34.065Z,91.60
2017-09-20T08:01:01.641Z,91.50
2017-09-20T08:03:31.273Z,91.50
2017-09-20T08:05:59.621Z,91.40
2017-09-20T08:08:27.207Z,91.30
2017-09-20T08:10:55.771Z,91.60
2017-09-20T08:13:23.361Z,91.50
2017-09-20T08:15:50.947Z,91.50
2017-09-20T08:18:18.805Z,91.40
2017-09-20T08:20:46.394Z,90.70
2017-09-20T08:23:13.978Z,90.60
2017-09-20T08:25:42.358Z,90.60
2017-09-20T08:28:10.711Z,90.50
2017-09-20T08:30:38.326Z,90.40
2017-09-20T08:33:05.910Z,90.70
2017-09-20T08:35:33.501Z,90.60
2017-09-20T08:38:01.133Z,90.90
2017-09-20T08:40:28.713Z,90.60
2017-09-20T08:42:56.304Z,90.80
2017-09-20T08:45:24.686Z,90.60
2017-09-20T08:47:52.282Z,90.60
2017-09-20T08:50:19.886Z,90.50
2017-09-20T08:52:48.261Z,90.70
2017-09-20T08:55:16.610Z,90.70
2017-09-20T08:57:44.198Z,90.60
2017-09-20T09:00:12.781Z,90.70
2017-09-20T09:02:41.131Z,90.50
2017-09-20T09:05:08.718Z,90.50
2017-09-20T09:07:37.281Z,91.20
2017-09-20T09:10:04.875Z,91.30
2017-09-20T09:12:32.466Z,91.80
2017-09-20T09:15:00.083Z,92.50
2017-09-20T09:17:28.482Z,92.20
2017-09-20T09:19:56.073Z,92.20
2017-09-20T09:22:23.658Z,92.60
2017-09-20T09:24:51.264Z,92.40
2017-09-20T09:27:18.846Z,92.30
2017-09-20T09:29:46.433Z,92.30
2017-09-20T09:32:14.314Z,91.80
2017-09-20T09:34:42.665Z,92.20
2017-09-20T09:37:10.250Z,92.20
2017-09-20T09:39:38.626Z,92.50
2017-09-20T09:42:06.979Z,92.20
2017-09-20T09:44:34.572Z,92.20
2017-09-20T09:47:02.185Z,92.50
2017-09-20T09:49:29.765Z,92.70
2017-09-20T09:51:57.346Z,92.50
2017-09-20T09:54:25.750Z,92.90
2017-09-20T09:56:53.338Z,92.80
2017-09-20T09:59:20.921Z,93.00
2017-09-20T10:01:48.810Z,93.00
2017-09-20T10:04:16.393Z,92.50
2017-09-20T10:06:43.981Z,92.90
2017-09-20T10:09:11.782Z,92.40
2017-09-20T10:11:40.134Z,91.90
2017-09-20T10:14:07.718Z,91.90
2017-09-20T10:16:36.302Z,91.90
2017-09-20T10:19:04.654Z,91.40
2017-09-20T10:21:32.245Z,91.40
2017-09-20T10:23:59.854Z,90.70
2017-09-20T10:26:27.446Z,90.00
2017-09-20T10:28:55.823Z,90.40
2017-09-20T10:31:24.174Z,90.50
2017-09-20T10:33:51.762Z,90.50
2017-09-20T10:36:20.159Z,91.00
2017-09-20T10:38:47.752Z,90.90
2017-09-20T10:41:15.335Z,90.80
2017-09-20T10:43:43.228Z,88.80
2017-09-20T10:46:11.579Z,89.30
2017-09-20T10:48:39.169Z,89.30
2017-09-20T10:51:06.825Z,88.90
2017-09-20T10:53:35.178Z,88.20
2017-09-20T10:56:02.811Z,88.40
2017-09-20T10:58:30.618Z,88.00
2017-09-20T11:00:58.980Z,88.30
2017-09-20T11:03:26.571Z,88.20
2017-09-20T11:05:54.215Z,87.70
2017-09-20T11:08:22.574Z,85.20
2017-09-20T11:13:26.258Z,85.10
2017-09-20T11:15:53.869Z,84.60
2017-09-20T11:18:22.245Z,84.40
2017-09-20T11:20:50.597Z,83.60
2017-09-20T11:23:18.194Z,83.40
2017-09-20T11:25:45.834Z,84.70
2017-09-20T11:28:14.251Z,83.10
2017-09-20T11:30:41.841Z,82.80
2017-09-20T11:33:09.466Z,80.70
2017-09-20T11:35:37.087Z,81.90
2017-09-20T11:38:05.495Z,80.90
2017-09-20T11:40:33.086Z,80.90
2017-09-20T11:43:00.675Z,79.20
2017-09-20T11:45:28.308Z,80.00
2017-09-20T11:47:55.907Z,79.10
2017-09-20T11:50:24.261Z,85.50
2017-09-20T11:52:51.877Z,85.50
2017-09-20T11:55:19.466Z,80.20
2017-09-20T11:57:47.274Z,81.90
2017-09-20T12:00:15.630Z,82.60
2017-09-20T12:02:43.222Z,82.70
2017-09-20T12:05:10.830Z,82.60
2017-09-20T12:07:38.422Z,80.30
2017-09-20T12:10:07.013Z,82.00
2017-09-20T12:12:34.601Z,82.60
2017-09-20T12:15:02.187Z,80.70
2017-09-20T12:17:29.990Z,80.70
2017-09-20T12:19:58.341Z,80.80
2017-09-20T12:22:25.929Z,80.90
2017-09-20T12:24:53.665Z,79.90
2017-09-20T12:27:21.259Z,81.20
2017-09-20T12:29:48.842Z,79.20
2017-09-20T12:32:16.465Z,78.30
2017-09-20T12:34:44.818Z,77.20
2017-09-20T12:37:12.407Z,77.20
2017-09-20T12:39:40.014Z,77.30
2017-09-20T12:42:07.606Z,75.60
2017-09-20T12:44:36.019Z,77.80
2017-09-20T12:47:03.609Z,77.80
2017-09-20T12:49:31.263Z,75.20
2017-09-20T12:51:59.897Z,75.50
2017-09-20T12:54:28.250Z,76.30
2017-09-20T12:56:55.843Z,76.30
2017-09-20T12:59:23.486Z,75.90
2017-09-20T13:01:51.846Z,77.50
2017-09-20T13:04:19.433Z,77.30
2017-09-20T13:06:47.037Z,77.10
2017-09-20T13:09:14.625Z,75.70
2017-09-20T13:11:42.262Z,76.00
2017-09-20T13:14:09.853Z,75.10
2017-09-20T13:16:37.441Z,75.00
2017-09-20T13:19:05.262Z,74.80
2017-09-20T13:21:32.866Z,73.50
2017-09-20T13:24:00.557Z,72.40
2017-09-20T13:26:28.350Z,71.60
2017-09-20T13:28:55.933Z,70.20
2017-09-20T13:31:24.282Z,69.30
2017-09-20T13:33:51.930Z,69.40
2017-09-20T13:36:20.321Z,68.70
2017-09-20T13:38:47.904Z,67.00
2017-09-20T13:41:16.281Z,67.50
2017-09-20T13:43:44.708Z,67.80
2017-09-20T13:46:12.305Z,67.70
2017-09-20T13:48:39.925Z,68.80
2017-09-20T13:51:07.510Z,65.80
2017-09-20T13:53:35.133Z,66.60
2017-09-20T13:56:02.717Z,65.40
2017-09-20T13:58:30.309Z,66.90
2017-09-20T14:00:58.890Z,65.10
2017-09-20T14:03:27.246Z,63.50
2017-09-20T14:05:54.834Z,63.50
2017-09-20T14:08:23.202Z,62.10
2017-09-20T14:10:52.042Z,66.20
2017-09-20T14:13:19.662Z,66.30
2017-09-20T14:15:48.010Z,63.80
2017-09-20T14:18:15.589Z,63.80
2017-09-20T14:20:43.970Z,61.90
2017-09-20T14:23:11.562Z,61.90
2017-09-20T14:25:39.138Z,61.00
2017-09-20T14:28:06.742Z,61.70
2017-09-20T14:35:08.421Z,62.50
2017-09-20T14:37:36.770Z,60.80
2017-09-20T14:40:05.043Z,60.70
2017-09-20T14:42:32.623Z,61.00
2017-09-20T14:45:01.022Z,62.70
2017-09-20T14:47:28.619Z,62.70
2017-09-20T14:49:56.201Z,63.60
2017-09-20T14:52:23.830Z,64.20
2017-09-20T14:54:51.414Z,63.30
2017-09-20T14:57:18.998Z,65.00
2017-09-20T14:59:46.842Z,69.80
2017-09-20T15:02:14.671Z,72.00
2017-09-20T15:04:43.202Z,72.90
2017-09-20T15:07:10.818Z,72.80
2017-09-20T15:09:38.414Z,72.40
2017-09-20T15:12:05.998Z,71.80
2017-09-20T15:14:34.390Z,74.30
2017-09-20T15:17:01.981Z,74.30
2017-09-20T15:19:29.573Z,73.70
2017-09-20T15:21:57.181Z,74.00
2017-09-20T15:24:24.773Z,75.20
2017-09-20T15:26:52.409Z,80.10
2017-09-20T15:29:20.001Z,83.30
2017-09-20T15:31:47.578Z,87.20
2017-09-20T15:34:15.975Z,90.30
2017-09-20T15:36:44.324Z,92.00
2017-09-20T15:39:11.923Z,91.90
2017-09-20T15:41:39.765Z,93.80
2017-09-20T15:44:08.114Z,94.20
2017-09-20T15:46:35.702Z,94.20
2017-09-20T15:49:04.127Z,95.10
2017-09-20T15:51:31.721Z,95.10
2017-09-20T15:53:59.303Z,96.00
2017-09-20T15:56:27.705Z,96.50
2017-09-20T15:58:55.290Z,96.40
2017-09-20T16:01:22.874Z,96.30
2017-09-20T16:03:50.758Z,95.80
2017-09-20T16:06:19.105Z,95.60
2017-09-20T16:08:46.694Z,95.60
2017-09-20T16:11:15.061Z,95.90
2017-09-20T16:13:42.671Z,95.90
2017-09-20T16:16:10.258Z,96.00
2017-09-20T16:18:37.841Z,96.00
2017-09-20T16:21:06.240Z,95.70
2017-09-20T16:23:33.822Z,95.70
2017-09-20T16:26:01.398Z,94.90
2017-09-20T16:28:29.201Z,94.90
2017-09-20T16:30:57.545Z,94.90
2017-09-20T16:33:25.142Z,94.90
2017-09-20T16:35:52.793Z,95.10
2017-09-20T16:38:21.147Z,95.30
2017-09-20T16:40:48.730Z,95.30
2017-09-20T16:43:17.110Z,95.10
2017-09-20T16:45:45.456Z,94.30
2017-09-20T16:48:13.062Z,94.30
2017-09-20T16:50:40.650Z,94.90
2017-09-20T16:53:08.290Z,94.80
2017-09-20T16:55:35.872Z,94.90
2017-09-20T16:58:03.454Z,94.70
2017-09-20T17:00:31.091Z,94.90
2017-09-20T17:02:58.674Z,94.40
2017-09-20T17:05:26.265Z,94.40
2017-09-20T17:07:54.638Z,94.50
2017-09-20T17:10:22.988Z,94.40
2017-09-20T17:12:50.783Z,94.40
2017-09-20T17:15:19.129Z,94.50
2017-09-20T17:17:46.710Z,94.50
2017-09-20T17:20:15.114Z,94.30
2017-09-20T17:22:42.698Z,94.30
2017-09-20T17:25:11.058Z,94.60
2017-09-20T17:27:38.690Z,94.60
2017-09-20T17:30:07.041Z,94.30
2017-09-20T17:32:34.630Z,94.30
2017-09-20T17:35:03.197Z,94.50
2017-09-20T17:37:30.781Z,94.50
2017-09-20T17:39:58.373Z,94.10
2017-09-20T17:42:26.018Z,94.60
2017-09-20T17:44:53.628Z,94.80
2017-09-20T17:47:21.218Z,94.40
2017-09-20T17:49:48.827Z,94.30
2017-09-20T17:52:16.478Z,94.60
2017-09-20T17:54:44.066Z,93.80
2017-09-20T17:57:11.649Z,94.00
2017-09-20T17:59:40.045Z,94.20
2017-09-20T18:02:07.625Z,94.20
2017-09-20T18:04:35.494Z,94.70
2017-09-20T18:07:03.127Z,93.70
2017-09-20T18:09:30.708Z,93.00
2017-09-20T18:11:58.290Z,93.50
2017-09-20T18:14:25.897Z,93.40
2017-09-20T18:16:53.673Z,93.20
2017-09-20T18:19:21.261Z,94.40
2017-09-20T18:21:48.846Z,94.40
2017-09-20T18:24:17.442Z,94.60
2017-09-20T18:26:45.794Z,95.00
2017-09-20T18:29:13.382Z,95.00
2017-09-20T18:31:41.785Z,94.50
2017-09-20T18:34:09.371Z,94.50
2017-09-20T18:36:36.957Z,94.90
2017-09-20T18:39:05.341Z,94.80
2017-09-20T18:41:33.694Z,95.20
2017-09-20T18:44:02.426Z,95.10
2017-09-20T18:46:30.058Z,95.00
2017-09-20T18:48:57.650Z,94.90
2017-09-20T18:51:25.242Z,95.20
2017-09-20T18:53:52.898Z,95.40
2017-09-20T18:56:20.495Z,95.40
2017-09-20T18:58:48.084Z,95.30
2017-09-20T19:01:15.934Z,94.70
2017-09-20T19:03:44.296Z,94.60
2017-09-20T19:06:11.886Z,94.60
2017-09-20T19:08:39.547Z,95.10
2017-09-20T19:11:07.134Z,95.20
2017-09-20T19:13:34.723Z,95.00
2017-09-20T19:16:02.390Z,95.10
2017-09-20T19:18:29.978Z,94.90
2017-09-20T19:20:57.578Z,95.20
2017-09-20T19:23:25.353Z,95.20
2017-09-20T19:25:52.942Z,95.30
2017-09-20T19:28:21.288Z,95.30
2017-09-20T19:30:48.893Z,95.30
2017-09-20T19:33:16.486Z,95.50
2017-09-20T19:35:44.070Z,95.30
2017-09-20T19:38:11.703Z,95.40
2017-09-20T19:40:39.298Z,95.30
2017-09-20T19:43:06.886Z,95.40
2017-09-20T19:45:35.278Z,95.10
2017-09-20T19:48:02.871Z,95.10
2017-09-20T19:50:30.454Z,94.40
2017-09-20T19:52:58.066Z,93.90
2017-09-20T19:55:25.662Z,93.90
2017-09-20T19:57:53.295Z,94.10
2017-09-20T20:00:20.879Z,94.20
2017-09-20T20:02:48.486Z,94.30
2017-09-20T20:05:16.138Z,94.30
2017-09-20T20:07:44.511Z,94.90
2017-09-20T20:10:12.861Z,94.90
2017-09-20T20:12:40.502Z,94.90
2017-09-20T20:15:08.087Z,94.90
2017-09-20T20:17:35.671Z,94.70
2017-09-20T20:20:03.324Z,94.50
2017-09-20T20:22:31.682Z,93.40
2017-09-20T20:24:59.266Z,93.40
2017-09-20T20:27:27.061Z,93.70
2017-09-20T20:29:54.651Z,93.60
2017-09-20T20:32:22.242Z,92.50
2017-09-20T20:34:50.718Z,92.80
2017-09-20T20:37:19.094Z,92.40
2017-09-20T20:39:47.449Z,92.20
2017-09-20T20:42:15.087Z,92.20
2017-09-20T20:44:42.674Z,92.20
2017-09-20T20:47:10.401Z,92.90
2017-09-20T20:49:38.113Z,92.90
2017-09-20T20:52:06.470Z,92.80
2017-09-20T20:54:34.049Z,92.80
2017-09-20T20:57:02.422Z,93.10
2017-09-20T20:59:30.778Z,93.40
2017-09-20T21:01:58.430Z,93.40
2017-09-20T21:04:26.027Z,93.60
2017-09-20T21:06:54.394Z,94.00
2017-09-20T21:09:22.786Z,94.10
2017-09-20T21:11:51.153Z,94.10
2017-09-20T21:14:19.533Z,94.20
2017-09-20T21:16:47.909Z,94.20
2017-09-20T21:19:16.286Z,95.10
2017-09-20T21:21:44.637Z,94.60
2017-09-20T21:24:12.281Z,95.10
2017-09-20T21:26:39.887Z,95.00
2017-09-20T21:29:08.234Z,95.10
2017-09-20T21:31:35.923Z,95.20
2017-09-20T21:34:04.298Z,94.70
2017-09-20T21:36:32.778Z,94.90
2017-09-20T21:39:01.130Z,94.60
2017-09-20T21:41:28.814Z,94.60
2017-09-20T21:43:57.265Z,94.60
2017-09-20T21:46:24.854Z,94.60
2017-09-20T21:48:53.230Z,95.30
2017-09-20T21:51:21.706Z,95.50
2017-09-20T21:53:50.050Z,95.70
2017-09-20T21:56:17.630Z,95.70
2017-09-20T21:58:45.233Z,95.90
2017-09-20T22:01:12.814Z,95.90
2017-09-20T22:03:40.413Z,95.80
2017-09-20T22:06:08.806Z,95.90
2017-09-20T22:08:37.180Z,96.30
2017-09-20T22:11:05.525Z,95.90
2017-09-20T22:13:33.125Z,95.90
2017-09-20T22:16:12.474Z,96.60
2017-09-20T22:18:51.982Z,95.00
2017-09-20T22:21:32.354Z,93.90
2017-09-20T22:24:12.762Z,94.40
2017-09-20T22:26:45.210Z,94.40
2017-09-20T22:29:12.811Z,94.60
